createdAt,value
2023-09-28T00:00:29.654Z,19.56
2023-09-28T00:03:32.537Z,19.50
2023-09-28T00:06:35.362Z,19.53
2023-09-28T00:09:37.046Z,19.56
2023-09-28T00:12:45.750Z,19.54
2023-09-28T00:15:47.546Z,19.47
2023-09-28T00:18:49.662Z,19.44
2023-09-28T00:21:52.329Z,19.45
2023-09-28T00:24:54.584Z,19.49
2023-09-28T00:27:56.623Z,19.43
2023-09-28T00:30:58.903Z,19.32
2023-09-28T00:34:03.924Z,19.27
2023-09-28T00:37:05.651Z,19.29
2023-09-28T00:40:08.052Z,19.20
2023-09-28T00:43:20.693Z,19.17
2023-09-28T00:46:22.583Z,19.19
2023-09-28T00:49:25.114Z,19.20
2023-09-28T00:52:27.018Z,19.19
2023-09-28T00:55:31.122Z,19.13
2023-09-28T00:58:32.926Z,19.09
2023-09-28T01:04:50.369Z,19.12
2023-09-28T01:07:52.646Z,19.09
2023-09-28T01:10:55.205Z,19.06
2023-09-28T01:13:57.299Z,19.08
2023-09-28T01:16:59.846Z,19.05
2023-09-28T01:20:01.956Z,18.96
2023-09-28T01:23:06.176Z,18.91
2023-09-28T01:26:08.476Z,18.88
2023-09-28T01:29:10.443Z,18.87
2023-09-28T01:32:12.408Z,18.80
2023-09-28T01:35:14.747Z,18.75
2023-09-28T01:38:22.771Z,18.70
2023-09-28T01:41:24.970Z,18.64
2023-09-28T01:44:26.558Z,18.61
2023-09-28T01:47:28.325Z,18.55
2023-09-28T01:50:31.829Z,18.52
2023-09-28T01:53:33.999Z,18.49
2023-09-28T01:56:35.817Z,18.53
2023-09-28T01:59:38.051Z,18.50
2023-09-28T02:02:40.795Z,18.47
2023-09-28T02:05:42.895Z,18.45
2023-09-28T02:08:45.112Z,18.50
2023-09-28T02:11:47.219Z,18.47
2023-09-28T02:14:49.529Z,18.38
2023-09-28T02:17:51.715Z,18.33
2023-09-28T02:20:53.998Z,18.32
2023-09-28T02:23:56.250Z,18.32
2023-09-28T02:26:58.716Z,18.33
2023-09-28T02:30:00.419Z,18.31
2023-09-28T02:33:02.163Z,18.27
2023-09-28T02:36:04.628Z,18.25
2023-09-28T02:39:06.534Z,18.23
2023-09-28T02:42:08.249Z,18.20
2023-09-28T02:45:11.764Z,18.18
2023-09-28T02:48:13.963Z,18.14
2023-09-28T02:51:16.849Z,17.97
2023-09-28T02:54:21.210Z,18.18
2023-09-28T02:57:23.854Z,18.19
2023-09-28T03:00:26.126Z,18.18
2023-09-28T03:03:28.552Z,18.15
2023-09-28T03:06:37.626Z,18.09
2023-09-28T03:09:39.930Z,18.05
2023-09-28T03:12:44.138Z,18.00
2023-09-28T03:15:46.826Z,17.96
2023-09-28T03:18:48.494Z,17.89
2023-09-28T03:21:50.438Z,17.91
2023-09-28T03:24:52.722Z,17.91
2023-09-28T03:27:56.270Z,17.87
2023-09-28T03:30:58.211Z,17.77
2023-09-28T03:33:59.882Z,17.74
2023-09-28T03:37:01.814Z,17.69
2023-09-28T03:40:04.650Z,17.70
2023-09-28T03:43:06.369Z,17.67
2023-09-28T03:46:08.599Z,17.70
2023-09-28T03:49:13.095Z,17.66
2023-09-28T03:52:15.332Z,17.65
2023-09-28T03:55:19.858Z,17.63
2023-09-28T03:58:22.462Z,17.61
2023-09-28T04:01:24.712Z,17.59
2023-09-28T04:04:26.913Z,17.55
2023-09-28T04:07:28.796Z,17.53
2023-09-28T04:10:31.323Z,17.54
2023-09-28T04:13:33.109Z,17.52
2023-09-28T04:16:35.073Z,17.51
2023-09-28T04:19:36.902Z,17.49
2023-09-28T04:22:39.454Z,17.49
2023-09-28T04:25:50.457Z,17.44
2023-09-28T04:28:53.057Z,17.43
2023-09-28T04:31:55.259Z,17.42
2023-09-28T04:34:57.035Z,17.35
2023-09-28T04:37:59.819Z,17.31
2023-09-28T04:41:02.350Z,17.22
2023-09-28T04:44:05.069Z,17.22
2023-09-28T04:47:07.300Z,17.23
2023-09-28T04:50:10.327Z,17.22
2023-09-28T04:53:12.439Z,17.20
2023-09-28T04:56:14.805Z,17.24
2023-09-28T04:59:16.586Z,17.24
2023-09-28T05:02:18.943Z,17.28
2023-09-28T05:05:20.692Z,17.28
2023-09-28T05:08:22.731Z,17.37
2023-09-28T05:11:25.092Z,17.38
2023-09-28T05:14:28.251Z,17.46
2023-09-28T05:17:31.154Z,17.50
2023-09-28T05:20:32.995Z,17.50
2023-09-28T05:23:34.731Z,17.44
2023-09-28T05:26:36.995Z,17.48
2023-09-28T05:29:39.028Z,17.43
2023-09-28T05:32:41.394Z,17.45
2023-09-28T05:35:43.883Z,17.49
2023-09-28T05:38:46.521Z,17.51
2023-09-28T05:41:48.989Z,17.55
2023-09-28T05:44:51.675Z,17.58
2023-09-28T05:47:54.719Z,17.64
2023-09-28T05:50:57.130Z,17.67
2023-09-28T05:53:59.339Z,17.74
2023-09-28T05:57:01.355Z,17.81
2023-09-28T06:00:03.590Z,17.80
2023-09-28T06:03:08.313Z,17.86
2023-09-28T06:06:15.403Z,17.86
2023-09-28T06:09:17.915Z,17.89
2023-09-28T06:12:21.221Z,17.95
2023-09-28T06:15:23.580Z,18.02
2023-09-28T06:18:25.722Z,18.08
2023-09-28T06:21:27.953Z,18.16
2023-09-28T06:24:30.251Z,18.21
2023-09-28T06:27:32.212Z,18.38
2023-09-28T06:30:45.677Z,18.44
2023-09-28T06:33:50.803Z,18.29
2023-09-28T06:36:55.112Z,18.56
2023-09-28T06:40:17.529Z,18.65
2023-09-28T06:43:19.393Z,18.62
2023-09-28T06:46:24.832Z,18.53
2023-09-28T06:49:26.530Z,18.89
2023-09-28T06:52:29.010Z,18.89
2023-09-28T06:55:30.937Z,18.99
2023-09-28T06:58:33.476Z,19.04
2023-09-28T07:01:35.792Z,19.13
2023-09-28T07:04:39.165Z,19.27
2023-09-28T07:07:42.227Z,19.25
2023-09-28T07:10:44.453Z,19.25
2023-09-28T07:13:46.785Z,19.31
2023-09-28T07:16:49.204Z,19.38
2023-09-28T07:19:51.820Z,19.52
2023-09-28T07:22:54.374Z,19.71
2023-09-28T07:25:56.397Z,19.77
2023-09-28T07:28:58.926Z,19.95
2023-09-28T07:32:01.029Z,19.99
2023-09-28T07:35:03.304Z,20.11
2023-09-28T07:38:07.683Z,20.14
2023-09-28T07:41:10.736Z,20.31
2023-09-28T07:44:12.488Z,20.39
2023-09-28T07:47:22.833Z,20.40
2023-09-28T07:50:25.595Z,20.37
2023-09-28T07:53:28.662Z,20.55
2023-09-28T07:56:32.009Z,20.55
2023-09-28T07:59:35.840Z,20.63
2023-09-28T08:02:37.997Z,20.69
2023-09-28T08:05:40.979Z,20.76
2023-09-28T08:08:42.831Z,20.80
2023-09-28T08:11:48.010Z,20.86
2023-09-28T08:14:49.758Z,21.01
2023-09-28T08:17:52.277Z,21.06
2023-09-28T08:21:09.440Z,20.98
2023-09-28T08:24:13.256Z,21.03
2023-09-28T08:27:19.532Z,21.07
2023-09-28T08:30:21.530Z,21.19
2023-09-28T08:33:24.600Z,21.19
2023-09-28T08:36:28.186Z,21.16
2023-09-28T08:39:31.722Z,21.31
2023-09-28T08:42:36.411Z,21.50
2023-09-28T08:45:40.796Z,21.57
2023-09-28T08:48:54.843Z,21.63
2023-09-28T08:52:00.659Z,21.72
2023-09-28T08:55:03.490Z,21.85
2023-09-28T08:58:06.350Z,21.94
2023-09-28T09:01:08.398Z,21.90
2023-09-28T09:04:10.381Z,21.99
2023-09-28T09:07:12.167Z,22.16
2023-09-28T09:10:19.592Z,22.21
2023-09-28T09:13:22.366Z,22.35
2023-09-28T09:16:25.507Z,22.39
2023-09-28T09:19:31.423Z,22.36
2023-09-28T09:22:45.064Z,22.54
2023-09-28T09:25:56.610Z,22.67
2023-09-28T09:29:00.375Z,22.81
2023-09-28T09:32:02.524Z,22.81
2023-09-28T09:35:08.385Z,22.89
2023-09-28T09:38:14.731Z,22.92
2023-09-28T09:41:18.754Z,23.04
2023-09-28T09:44:36.357Z,23.11
2023-09-28T09:47:45.719Z,23.32
2023-09-28T09:50:50.704Z,23.50
2023-09-28T09:53:54.053Z,23.45
2023-09-28T09:56:56.804Z,23.46
2023-09-28T10:00:00.392Z,23.56
2023-09-28T10:03:08.518Z,23.69
2023-09-28T10:06:13.176Z,23.62
2023-09-28T10:09:32.683Z,23.77
2023-09-28T10:12:35.613Z,23.84
2023-09-28T10:15:38.801Z,24.07
2023-09-28T10:18:44.329Z,24.07
2023-09-28T10:21:47.242Z,24.07
2023-09-28T10:24:52.246Z,24.26
2023-09-28T10:27:58.541Z,24.42
2023-09-28T10:31:08.800Z,24.51
2023-09-28T10:34:18.318Z,24.74
2023-09-28T10:37:21.296Z,24.71
2023-09-28T10:40:40.684Z,24.96
2023-09-28T10:43:52.464Z,25.07
2023-09-28T10:46:55.001Z,25.34
2023-09-28T10:50:02.116Z,25.40
2023-09-28T10:53:04.860Z,25.44
2023-09-28T10:56:08.481Z,25.57
2023-09-28T10:59:15.756Z,25.65
2023-09-28T11:02:19.565Z,25.76
2023-09-28T11:05:22.340Z,25.78
2023-09-28T11:08:26.096Z,25.87
2023-09-28T11:11:29.638Z,25.74
2023-09-28T11:14:32.044Z,25.93
2023-09-28T11:17:37.289Z,26.11
2023-09-28T11:20:39.783Z,26.30
2023-09-28T11:23:42.209Z,33.00
2023-09-28T11:26:44.234Z,36.47
2023-09-28T11:29:46.251Z,38.84
2023-09-28T11:32:53.254Z,38.43
2023-09-28T11:35:55.563Z,39.18
2023-09-28T11:38:57.992Z,40.07
2023-09-28T11:42:01.300Z,39.49
2023-09-28T11:45:07.345Z,40.86
2023-09-28T11:48:09.968Z,41.04
2023-09-28T11:51:16.875Z,40.31
2023-09-28T11:54:23.301Z,40.64
2023-09-28T11:57:26.840Z,40.81
2023-09-28T12:00:28.815Z,40.49
2023-09-28T12:03:31.097Z,39.80
2023-09-28T12:06:48.026Z,39.36
2023-09-28T12:10:02.265Z,39.57
2023-09-28T12:13:08.896Z,39.41
2023-09-28T12:16:12.047Z,39.65
2023-09-28T12:19:14.657Z,39.26
2023-09-28T12:22:17.954Z,39.91
2023-09-28T12:25:20.179Z,39.54
2023-09-28T12:28:22.479Z,39.27
2023-09-28T12:31:24.657Z,39.00
2023-09-28T12:34:26.324Z,38.50
2023-09-28T12:37:28.755Z,36.07
2023-09-28T12:40:32.841Z,32.89
2023-09-28T12:43:35.740Z,31.11
2023-09-28T12:46:37.768Z,30.04
2023-09-28T12:49:39.501Z,29.32
2023-09-28T12:52:41.724Z,28.91
2023-09-28T12:55:46.114Z,28.46
2023-09-28T12:58:48.246Z,28.30
2023-09-28T13:05:06.724Z,28.10
2023-09-28T13:08:14.654Z,28.05
2023-09-28T13:11:16.710Z,28.00
2023-09-28T13:14:19.458Z,27.96
2023-09-28T13:17:21.981Z,27.87
2023-09-28T13:20:23.826Z,27.86
2023-09-28T13:23:25.737Z,27.72
2023-09-28T13:26:29.910Z,27.60
2023-09-28T13:29:32.229Z,27.57
2023-09-28T13:32:34.503Z,27.38
2023-09-28T13:35:39.335Z,27.24
2023-09-28T13:38:44.435Z,27.12
2023-09-28T13:41:46.879Z,26.98
2023-09-28T13:44:49.503Z,26.94
2023-09-28T13:47:51.322Z,26.93
2023-09-28T13:50:53.418Z,26.90
2023-09-28T13:54:10.470Z,26.90
2023-09-28T13:57:17.256Z,26.91
2023-09-28T14:00:19.359Z,26.91
2023-09-28T14:03:43.897Z,26.93
2023-09-28T14:06:46.003Z,26.85
2023-09-28T14:09:52.377Z,26.78
2023-09-28T14:12:55.737Z,26.85
2023-09-28T14:15:57.801Z,26.88
2023-09-28T14:19:02.790Z,26.91
2023-09-28T14:22:05.450Z,26.85
2023-09-28T14:25:07.908Z,26.77
2023-09-28T14:28:10.086Z,26.76
2023-09-28T14:31:12.307Z,26.65
2023-09-28T14:34:28.496Z,26.62
2023-09-28T14:37:30.712Z,26.57
2023-09-28T14:40:32.447Z,26.47
2023-09-28T14:43:34.711Z,26.42
2023-09-28T14:46:37.212Z,26.47
2023-09-28T14:49:39.423Z,26.45
2023-09-28T14:52:58.780Z,26.38
2023-09-28T14:56:00.925Z,26.35
2023-09-28T14:59:06.517Z,26.23
2023-09-28T15:02:08.571Z,26.18
2023-09-28T15:05:10.591Z,26.14
2023-09-28T15:08:13.603Z,26.11
2023-09-28T15:11:23.656Z,26.08
2023-09-28T15:14:25.871Z,26.14
2023-09-28T15:17:29.326Z,26.10
2023-09-28T15:20:35.759Z,26.08
2023-09-28T15:23:38.206Z,26.05
2023-09-28T15:26:40.439Z,26.02
2023-09-28T15:29:42.543Z,25.99
2023-09-28T15:32:44.463Z,26.01
2023-09-28T15:35:46.898Z,26.00
2023-09-28T15:38:48.628Z,25.99
2023-09-28T15:41:50.667Z,25.98
2023-09-28T15:44:52.826Z,25.86
2023-09-28T15:47:55.423Z,25.84
2023-09-28T15:54:13.493Z,25.78
2023-09-28T15:57:15.420Z,25.70
2023-09-28T16:00:37.371Z,25.59
2023-09-28T16:03:40.243Z,25.52
2023-09-28T16:06:45.625Z,25.45
2023-09-28T16:09:48.076Z,25.39
2023-09-28T16:12:50.168Z,25.35
2023-09-28T16:15:51.894Z,25.29
2023-09-28T16:18:54.905Z,25.20
2023-09-28T16:21:57.488Z,25.15
2023-09-28T16:25:00.052Z,25.08
2023-09-28T16:28:02.602Z,24.99
2023-09-28T16:31:04.534Z,24.93
2023-09-28T16:37:22.055Z,24.85
2023-09-28T16:40:24.192Z,24.80
2023-09-28T16:43:27.348Z,24.71
2023-09-28T16:46:29.578Z,24.63
2023-09-28T16:49:31.838Z,24.58
2023-09-28T16:52:33.517Z,24.62
2023-09-28T16:55:35.315Z,24.54
2023-09-28T16:58:40.588Z,24.43
2023-09-28T17:01:42.806Z,24.32
2023-09-28T17:04:45.323Z,24.23
2023-09-28T17:07:47.563Z,24.20
2023-09-28T17:10:51.721Z,24.16
2023-09-28T17:13:55.143Z,24.14
2023-09-28T17:16:57.316Z,24.08
2023-09-28T17:19:59.048Z,23.96
2023-09-28T17:23:01.298Z,23.87
2023-09-28T17:26:03.101Z,23.76
2023-09-28T17:29:05.413Z,23.66
2023-09-28T17:32:07.600Z,23.58
2023-09-28T17:35:10.787Z,23.51
2023-09-28T17:38:12.966Z,23.43
2023-09-28T17:41:16.074Z,23.36
2023-09-28T17:44:19.870Z,23.29
2023-09-28T17:47:22.149Z,23.17
2023-09-28T17:50:24.626Z,23.10
2023-09-28T17:53:28.068Z,23.02
2023-09-28T17:56:31.634Z,22.94
2023-09-28T17:59:33.929Z,22.86
2023-09-28T18:02:36.424Z,22.69
2023-09-28T18:05:39.194Z,22.62
2023-09-28T18:08:41.881Z,22.52
2023-09-28T18:11:44.440Z,22.39
2023-09-28T18:14:46.960Z,22.30
2023-09-28T18:17:49.197Z,22.21
2023-09-28T18:20:51.873Z,22.16
2023-09-28T18:23:54.713Z,22.12
2023-09-28T18:26:58.050Z,22.11
2023-09-28T18:30:00.407Z,21.96
2023-09-28T18:33:02.621Z,21.91
2023-09-28T18:36:06.108Z,21.87
2023-09-28T18:39:14.809Z,21.94
2023-09-28T18:42:18.484Z,21.96
2023-09-28T18:45:21.496Z,21.99
2023-09-28T18:48:23.679Z,21.93
2023-09-28T18:51:39.164Z,21.64
2023-09-28T18:54:41.267Z,21.76
2023-09-28T18:57:47.134Z,21.72
2023-09-28T19:00:50.082Z,21.65
2023-09-28T19:03:52.521Z,21.62
2023-09-28T19:06:55.214Z,21.61
2023-09-28T19:09:57.457Z,21.61
2023-09-28T19:13:00.144Z,21.55
2023-09-28T19:16:06.058Z,21.50
2023-09-28T19:19:09.471Z,21.40
2023-09-28T19:22:11.639Z,21.39
2023-09-28T19:25:15.138Z,21.36
2023-09-28T19:28:19.014Z,21.31
2023-09-28T19:31:23.301Z,21.30
2023-09-28T19:34:25.344Z,21.19
2023-09-28T19:37:30.092Z,21.14
2023-09-28T19:40:32.261Z,21.09
2023-09-28T19:43:34.018Z,21.13
2023-09-28T19:46:38.040Z,21.18
2023-09-28T19:49:39.797Z,21.12
2023-09-28T19:52:42.042Z,21.02
2023-09-28T19:55:43.816Z,20.95
2023-09-28T19:58:45.839Z,20.90
2023-09-28T20:01:49.339Z,20.95
2023-09-28T20:04:51.821Z,20.94
2023-09-28T20:07:53.877Z,20.85
2023-09-28T20:10:56.735Z,20.80
2023-09-28T20:13:59.589Z,20.75
2023-09-28T20:17:01.808Z,20.71
2023-09-28T20:20:04.741Z,20.70
2023-09-28T20:23:06.850Z,20.65
2023-09-28T20:26:08.594Z,20.55
2023-09-28T20:29:13.867Z,20.51
2023-09-28T20:32:16.899Z,20.44
2023-09-28T20:35:19.260Z,20.39
2023-09-28T20:38:21.062Z,20.37
2023-09-28T20:41:23.104Z,20.28
2023-09-28T20:44:24.878Z,20.29
2023-09-28T20:47:27.275Z,20.34
2023-09-28T20:50:29.852Z,20.36
2023-09-28T20:53:31.597Z,20.43
2023-09-28T20:56:33.490Z,20.44
2023-09-28T20:59:36.228Z,20.36
2023-09-28T21:02:38.216Z,20.33
2023-09-28T21:05:40.248Z,20.26
2023-09-28T21:08:42.617Z,20.17
2023-09-28T21:11:44.601Z,20.12
2023-09-28T21:14:47.005Z,20.09
2023-09-28T21:17:49.160Z,20.05
2023-09-28T21:20:51.833Z,19.98
2023-09-28T21:23:54.163Z,19.94
2023-09-28T21:26:56.006Z,19.90
2023-09-28T21:29:58.409Z,19.85
2023-09-28T21:33:11.148Z,19.83
2023-09-28T21:36:13.453Z,19.77
2023-09-28T21:39:15.342Z,19.77
2023-09-28T21:42:17.249Z,19.75
2023-09-28T21:45:19.238Z,19.69
2023-09-28T21:48:21.220Z,19.70
2023-09-28T21:51:37.704Z,19.63
2023-09-28T21:54:40.588Z,19.61
2023-09-28T21:57:42.759Z,19.57
2023-09-28T22:00:44.478Z,19.54
2023-09-28T22:03:46.507Z,19.52
2023-09-28T22:06:48.131Z,19.52
2023-09-28T22:09:50.063Z,19.49
2023-09-28T22:12:52.543Z,19.49
2023-09-28T22:15:55.074Z,19.44
2023-09-28T22:18:57.630Z,19.45
2023-09-28T22:21:59.593Z,19.41
2023-09-28T22:25:01.838Z,19.28
2023-09-28T22:28:05.338Z,19.33
2023-09-28T22:31:08.166Z,19.29
2023-09-28T22:34:10.140Z,19.23
2023-09-28T22:37:12.029Z,19.15
2023-09-28T22:40:26.748Z,19.09
2023-09-28T22:43:29.467Z,19.08
2023-09-28T22:46:31.910Z,19.07
2023-09-28T22:49:34.389Z,19.01
2023-09-28T22:52:35.981Z,18.95
2023-09-28T22:55:38.560Z,18.87
2023-09-28T22:58:40.333Z,18.82
2023-09-28T23:01:42.402Z,18.80
2023-09-28T23:04:44.064Z,18.74
2023-09-28T23:07:46.279Z,18.70
2023-09-28T23:10:47.918Z,18.69
2023-09-28T23:13:50.138Z,18.64
2023-09-28T23:16:51.969Z,18.61
2023-09-28T23:19:54.258Z,18.59
2023-09-28T23:22:56.095Z,18.57
2023-09-28T23:25:57.929Z,18.55
2023-09-28T23:29:00.093Z,18.54
2023-09-28T23:32:02.654Z,18.52
2023-09-28T23:35:05.680Z,18.53
2023-09-28T23:38:08.011Z,18.49
2023-09-28T23:41:10.182Z,18.46
2023-09-28T23:44:13.162Z,18.43
2023-09-28T23:47:15.272Z,18.44
2023-09-28T23:50:17.650Z,18.44
2023-09-28T23:53:19.912Z,18.41
2023-09-28T23:56:21.779Z,18.39
2023-09-28T23:59:23.530Z,18.35
